Time;durP1;ratioP1;P1;durP2;ratioP2;P2;SDS_P1;SDS_P2;PMS_P1;PMS_P2;Temp;Humidity;BMP_temperature;BMP_pressure;BME280_temperature;BME280_humidity;BME280_pressure;Samples;Min_cycle;Max_cycle;Signal;HPM_P1;HPM_P2
2024/01/17 00:01:42;;;;;;;;;27.25;21.50;;;;;2.20;83.79;99933.28;5066362;27;45319;-71
2024/01/17 00:04:08;;;;;;;;;29.00;20.75;;;;;2.22;83.63;99929.78;5070371;27;45490;-71
2024/01/17 00:06:33;;;;;;;;;30.25;22.75;;;;;2.17;83.68;99918.59;5073003;27;46158;-71
2024/01/17 00:08:58;;;;;;;;;28.75;21.25;;;;;1.97;84.11;99884.38;5073050;28;45159;-72
2024/01/17 00:11:24;;;;;;;;;15.25;15.25;;;;;2.21;83.69;99916.75;5066943;27;45514;-71
2024/01/17 00:13:49;;;;;;;;;25.75;21.75;;;;;2.23;85.04;99907.97;5080602;27;45184;-71
2024/01/17 00:16:24;;;;;;;;;31.00;25.25;;;;;2.26;85.18;99902.69;5065023;28;47154;-71
2024/01/17 00:18:53;;;;;;;;;28.00;21.25;;;;;2.21;85.57;99883.72;5067750;28;45414;-72
2024/01/17 00:21:18;;;;;;;;;22.00;18.25;;;;;2.25;84.70;99881.88;5069658;27;45405;-71
2024/01/17 00:23:43;;;;;;;;;28.25;22.50;;;;;2.26;85.22;99873.16;5051915;28;45445;-71
2024/01/17 00:26:08;;;;;;;;;24.75;21.50;;;;;2.31;85.59;99874.72;5067289;28;46130;-71
2024/01/17 00:28:34;;;;;;;;;31.00;22.75;;;;;2.29;85.61;99865.25;5064230;28;45473;-71
2024/01/17 00:30:59;;;;;;;;;25.50;25.25;;;;;2.12;85.30;99831.81;5054844;28;45447;-72
2024/01/17 00:33:25;;;;;;;;;31.25;26.75;;;;;2.33;86.72;99856.41;5055767;28;45469;-71
2024/01/17 00:35:50;;;;;;;;;31.75;25.00;;;;;2.30;87.55;99859.09;5079068;28;45241;-71
2024/01/17 00:38:16;;;;;;;;;25.00;22.50;;;;;2.29;87.33;99831.31;5069914;27;45339;-72
2024/01/17 00:40:41;;;;;;;;;30.25;23.25;;;;;2.16;88.17;99806.50;5081103;28;45276;-71
2024/01/17 00:43:07;;;;;;;;;26.25;23.50;;;;;2.27;88.20;99812.22;5078349;27;45225;-71
2024/01/17 00:45:32;;;;;;;;;28.50;22.25;;;;;2.32;88.46;99807.75;5079917;27;45324;-71
2024/01/17 00:47:58;;;;;;;;;23.25;19.00;;;;;2.33;89.20;99812.91;5070164;28;45405;-71
2024/01/17 00:50:23;;;;;;;;;25.75;24.00;;;;;2.38;90.78;99813.66;5068778;28;45242;-71
2024/01/17 00:52:48;;;;;;;;;20.25;19.50;;;;;2.37;90.85;99819.75;5072240;28;45161;-71
2024/01/17 00:55:14;;;;;;;;;27.75;21.50;;;;;2.34;90.95;99801.59;5071210;28;45599;-71
2024/01/17 00:57:39;;;;;;;;;22.50;22.50;;;;;2.35;91.59;99800.69;5069843;27;45233;-71
2024/01/17 01:00:07;;;;;;;;;27.50;25.75;;;;;2.39;92.95;99801.47;5062701;28;45334;-71
2024/01/17 01:02:33;;;;;;;;;27.75;25.00;;;;;2.21;94.92;99766.34;5077769;27;45441;-71
2024/01/17 01:04:58;;;;;;;;;26.25;25.75;;;;;2.33;95.56;99778.13;5071007;27;45468;-71
2024/01/17 01:07:23;;;;;;;;;29.50;26.75;;;;;2.33;98.94;99776.38;5075469;28;46206;-71
2024/01/17 01:09:49;;;;;;;;;29.75;25.75;;;;;2.18;97.99;99742.09;5071989;27;45240;-71
2024/01/17 01:12:14;;;;;;;;;26.50;22.25;;;;;2.32;99.00;99756.44;5063652;27;45341;-71
2024/01/17 01:14:39;;;;;;;;;31.50;29.25;;;;;2.30;99.09;99760.81;5067065;27;45388;-72
2024/01/17 01:17:05;;;;;;;;;31.75;25.00;;;;;2.34;99.84;99759.84;5073546;28;45310;-71
2024/01/17 01:19:30;;;;;;;;;37.00;26.25;;;;;2.23;100.00;99735.81;5075311;27;45458;-71
2024/01/17 01:21:55;;;;;;;;;30.25;25.75;;;;;2.29;100.00;99747.84;5079290;28;45272;-71
2024/01/17 01:24:22;;;;;;;;;29.00;24.25;;;;;2.25;100.00;99728.81;5078600;27;45328;-71
2024/01/17 01:26:47;;;;;;;;;27.25;25.00;;;;;2.29;100.00;99717.38;5070109;27;45967;-71
2024/01/17 01:29:14;;;;;;;;;23.75;23.50;;;;;2.23;100.00;99712.34;5077113;28;45357;-71
2024/01/17 01:31:39;;;;;;;;;34.25;28.25;;;;;2.28;100.00;99713.06;5066445;27;45357;-70
2024/01/17 01:34:05;;;;;;;;;33.25;23.25;;;;;2.11;100.00;99671.00;5078330;27;45334;-70
2024/01/17 01:36:30;;;;;;;;;27.50;24.50;;;;;2.06;100.00;99663.31;5075001;27;45236;-70
2024/01/17 01:38:55;;;;;;;;;32.25;25.25;;;;;2.02;100.00;99650.44;5079416;28;45507;-70
2024/01/17 01:41:21;;;;;;;;;29.75;28.25;;;;;2.29;100.00;99685.25;5068688;27;45351;-70
2024/01/17 01:43:46;;;;;;;;;32.50;28.50;;;;;2.27;100.00;99673.97;5079153;27;46958;-70
2024/01/17 01:46:20;;;;;;;;;34.75;25.00;;;;;2.24;100.00;99667.13;5067477;28;45639;-70
2024/01/17 01:48:48;;;;;;;;;37.75;30.00;;;;;2.32;100.00;99672.97;5079318;28;45253;-70
2024/01/17 01:51:14;;;;;;;;;38.00;28.25;;;;;2.32;100.00;99672.09;5052265;28;45646;-70
2024/01/17 01:53:42;;;;;;;;;33.00;25.25;;;;;2.31;100.00;99666.03;5075981;28;46535;-70
2024/01/17 01:56:11;;;;;;;;;30.50;29.25;;;;;2.31;100.00;99660.81;5064062;28;45330;-70
2024/01/17 01:58:37;;;;;;;;;36.00;28.50;;;;;2.33;100.00;99660.75;5070647;27;45510;-70
2024/01/17 02:01:06;;;;;;;;;33.75;28.50;;;;;2.23;100.00;99634.09;5070949;28;45426;-70
2024/01/17 02:03:33;;;;;;;;;28.25;24.25;;;;;1.85;100.00;99570.16;5071312;27;46354;-70
2024/01/17 02:06:00;;;;;;;;;37.50;26.50;;;;;2.27;100.00;99640.94;5059993;28;45364;-70
2024/01/17 02:08:25;;;;;;;;;43.25;29.25;;;;;2.29;100.00;99623.47;5052799;28;45377;-70
2024/01/17 02:10:50;;;;;;;;;35.50;24.75;;;;;2.12;100.00;99584.06;5049582;28;45363;-70
2024/01/17 02:13:16;;;;;;;;;31.25;27.75;;;;;2.23;100.00;99597.59;5052976;28;48363;-70
2024/01/17 02:15:41;;;;;;;;;30.00;28.25;;;;;2.06;100.00;99563.41;5066869;28;45348;-70
2024/01/17 02:18:07;;;;;;;;;34.50;29.75;;;;;2.23;100.00;99587.16;5070477;28;45530;-70
2024/01/17 02:20:32;;;;;;;;;30.50;27.75;;;;;2.19;100.00;99574.28;5069258;28;45302;-70
2024/01/17 02:22:58;;;;;;;;;38.00;29.25;;;;;2.04;100.00;99536.50;5067625;28;48459;-70
2024/01/17 02:25:23;;;;;;;;;37.00;32.25;;;;;2.22;100.00;99558.53;5076242;27;45513;-70
2024/01/17 02:27:48;;;;;;;;;39.75;31.00;;;;;2.29;100.00;99560.84;5072957;27;45243;-70
2024/01/17 02:30:14;;;;;;;;;30.00;29.00;;;;;2.05;100.00;99505.19;5043767;28;46047;-70
2024/01/17 02:32:42;;;;;;;;;35.50;33.25;;;;;2.29;100.00;99544.38;5071287;28;45426;-70
2024/01/17 02:35:08;;;;;;;;;34.25;30.75;;;;;2.26;100.00;99532.28;5065187;28;45372;-70
2024/01/17 02:37:33;;;;;;;;;34.50;30.25;;;;;2.28;100.00;99527.88;5076618;28;45365;-70
2024/01/17 02:39:58;;;;;;;;;38.50;35.00;;;;;2.07;100.00;99486.84;5074728;28;45204;-69
2024/01/17 02:42:24;;;;;;;;;38.50;33.75;;;;;2.24;100.00;99509.75;5068058;27;45359;-70
2024/01/17 02:44:50;;;;;;;;;42.00;32.25;;;;;2.19;100.00;99496.91;5051714;28;45828;-70
2024/01/17 02:47:16;;;;;;;;;34.50;29.50;;;;;2.06;100.00;99475.56;5071678;27;45375;-69
2024/01/17 02:49:41;;;;;;;;;40.50;37.50;;;;;2.28;100.00;99507.00;5046433;28;45391;-70
2024/01/17 02:52:07;;;;;;;;;34.50;34.50;;;;;2.28;100.00;99509.63;5057633;28;46890;-70
2024/01/17 02:54:32;;;;;;;;;35.50;27.00;;;;;2.27;100.00;99505.28;5071750;28;45588;-70
2024/01/17 02:56:57;;;;;;;;;34.75;28.50;;;;;2.07;100.00;99472.06;5069000;27;45424;-70
2024/01/17 02:59:23;;;;;;;;;35.00;30.75;;;;;2.26;100.00;99487.94;5073762;27;45250;-70
2024/01/17 03:01:48;;;;;;;;;32.00;26.25;;;;;2.30;100.00;99494.75;5063964;28;45493;-70
2024/01/17 03:04:14;;;;;;;;;39.25;31.00;;;;;2.30;100.00;99494.75;5071871;27;45359;-70
2024/01/17 03:06:39;;;;;;;;;28.50;27.00;;;;;2.28;100.00;99482.69;5070863;28;45354;-70
2024/01/17 03:09:04;;;;;;;;;34.50;27.75;;;;;2.23;100.00;99475.00;5059678;28;45454;-70
2024/01/17 03:11:30;;;;;;;;;33.50;30.25;;;;;2.23;100.00;99472.38;5064708;28;46447;-70
2024/01/17 03:13:56;;;;;;;;;37.75;33.25;;;;;2.26;100.00;99461.03;5066451;27;45526;-70
2024/01/17 03:16:21;;;;;;;;;33.00;29.50;;;;;2.29;100.00;99458.31;5079886;27;45254;-70
2024/01/17 03:18:47;;;;;;;;;39.75;34.50;;;;;2.26;100.00;99456.63;5067261;27;45335;-70
2024/01/17 03:21:13;;;;;;;;;28.75;27.50;;;;;2.30;100.00;99452.16;5068797;28;45323;-70
2024/01/17 03:23:39;;;;;;;;;43.25;32.00;;;;;2.27;100.00;99441.84;5052456;28;45838;-70
2024/01/17 03:26:04;;;;;;;;;32.75;29.75;;;;;2.29;100.00;99451.31;5053820;28;46010;-70
2024/01/17 03:28:30;;;;;;;;;29.75;29.75;;;;;2.28;100.00;99443.56;5050432;28;45470;-70
2024/01/17 03:30:55;;;;;;;;;39.50;33.50;;;;;2.30;100.00;99437.38;5068231;28;46505;-70
2024/01/17 03:33:20;;;;;;;;;35.00;33.75;;;;;2.27;100.00;99423.56;5075559;28;45341;-70
2024/01/17 03:35:46;;;;;;;;;34.25;30.00;;;;;2.22;100.00;99413.34;5071789;28;45283;-69
2024/01/17 03:38:11;;;;;;;;;29.75;24.75;;;;;2.23;100.00;99403.72;5070179;28;45474;-69
2024/01/17 03:40:36;;;;;;;;;26.75;26.25;;;;;2.18;100.00;99396.09;5062580;28;48133;-70
2024/01/17 03:43:03;;;;;;;;;41.50;35.25;;;;;2.09;100.00;99375.56;5072426;27;45544;-69
2024/01/17 03:45:28;;;;;;;;;40.75;33.50;;;;;2.23;100.00;99382.84;5067145;27;45468;-69
2024/01/17 03:47:53;;;;;;;;;41.50;33.50;;;;;1.99;100.00;99337.69;5074260;27;45326;-69
2024/01/17 03:50:18;;;;;;;;;46.75;39.25;;;;;2.15;100.00;99356.22;5074696;28;45432;-70
2024/01/17 03:52:44;;;;;;;;;37.25;33.75;;;;;2.11;100.00;99350.25;5074832;27;45301;-70
2024/01/17 03:55:09;;;;;;;;;34.50;29.00;;;;;2.15;100.00;99351.00;5068863;28;45291;-69
2024/01/17 03:57:35;;;;;;;;;42.25;37.75;;;;;2.15;100.00;99345.78;5067494;27;45276;-70
2024/01/17 04:00:01;;;;;;;;;39.25;32.50;;;;;2.10;100.00;99325.94;5058556;28;47429;-70
2024/01/17 04:02:26;;;;;;;;;27.25;26.50;;;;;2.06;100.00;99313.09;5069023;28;45616;-70
2024/01/17 04:04:52;;;;;;;;;37.25;33.25;;;;;2.13;100.00;99311.09;5077653;27;45385;-70
2024/01/17 04:07:20;;;;;;;;;42.00;37.25;;;;;2.16;100.00;99327.47;5081622;27;45404;-70
2024/01/17 04:09:46;;;;;;;;;46.50;38.00;;;;;2.18;100.00;99315.25;5075347;27;45465;-70
2024/01/17 04:12:12;;;;;;;;;37.50;33.75;;;;;2.13;100.00;99295.47;5075701;28;45193;-70
2024/01/17 04:14:37;;;;;;;;;36.00;32.50;;;;;2.15;100.00;99291.03;5081147;27;45422;-70
2024/01/17 04:17:03;;;;;;;;;39.00;37.25;;;;;2.00;100.00;99256.78;5076200;28;45359;-70
2024/01/17 04:19:28;;;;;;;;;37.75;33.00;;;;;1.99;100.00;99249.91;5076552;28;46405;-70
2024/01/17 04:21:57;;;;;;;;;40.75;37.00;;;;;2.08;100.00;99251.28;5065030;28;45304;-71
2024/01/17 04:24:26;;;;;;;;;43.00;36.50;;;;;1.97;100.00;99235.19;5079541;27;45263;-70
2024/01/17 04:26:55;;;;;;;;;40.00;37.50;;;;;2.13;100.00;99240.69;5067829;27;45279;-71
2024/01/17 04:29:20;;;;;;;;;42.25;36.50;;;;;1.91;100.00;99198.94;5068961;28;45541;-70
2024/01/17 04:31:46;;;;;;;;;35.50;31.50;;;;;1.94;100.00;99197.06;5069749;27;45233;-70
2024/01/17 04:34:12;;;;;;;;;37.50;32.25;;;;;2.02;100.00;99202.84;5065687;28;45941;-70
2024/01/17 04:36:37;;;;;;;;;45.50;37.50;;;;;1.91;100.00;99167.66;5067221;27;45388;-70
2024/01/17 04:39:03;;;;;;;;;46.25;38.00;;;;;2.13;100.00;99198.97;5076171;28;45366;-70
2024/01/17 04:41:28;;;;;;;;;38.75;27.25;;;;;2.15;100.00;99200.63;5077681;28;45392;-70
2024/01/17 04:43:53;;;;;;;;;38.25;28.25;;;;;2.16;100.00;99191.84;5078190;28;45426;-71
2024/01/17 04:46:19;;;;;;;;;29.00;27.75;;;;;2.14;100.00;99169.38;5079962;27;45228;-70
2024/01/17 04:48:45;;;;;;;;;40.75;32.25;;;;;2.13;100.00;99160.69;5080515;28;46625;-70
2024/01/17 04:51:11;;;;;;;;;37.75;34.00;;;;;2.17;100.00;99166.63;5074398;27;45264;-70
2024/01/17 04:53:37;;;;;;;;;34.75;28.00;;;;;2.12;100.00;99145.97;5081020;28;45307;-71
2024/01/17 04:56:06;;;;;;;;;45.25;37.25;;;;;2.13;100.00;99145.03;5076621;28;45535;-70
2024/01/17 04:58:32;;;;;;;;;42.25;31.75;;;;;2.11;100.00;99131.22;5070653;28;45250;-71
2024/01/17 05:00:57;;;;;;;;;44.75;38.25;;;;;2.16;100.00;99131.88;5080333;28;45283;-70
2024/01/17 05:03:23;;;;;;;;;41.25;35.00;;;;;1.97;100.00;99104.84;5080827;27;45297;-70
2024/01/17 05:05:48;;;;;;;;;41.50;36.25;;;;;2.09;100.00;99131.28;5066541;28;45181;-71
2024/01/17 05:08:14;;;;;;;;;37.75;31.50;;;;;2.12;100.00;99125.13;5075576;27;45262;-70
2024/01/17 05:10:45;;;;;;;;;35.75;31.50;;;;;2.12;100.00;99132.09;5071456;27;45339;-71
2024/01/17 05:13:12;;;;;;;;;32.00;27.00;;;;;1.91;100.00;99087.69;5078669;27;45610;-70
2024/01/17 05:15:38;;;;;;;;;39.25;30.25;;;;;2.12;100.00;99126.88;5059863;28;45451;-70
2024/01/17 05:18:04;;;;;;;;;41.25;34.25;;;;;2.09;100.00;99122.63;5075813;28;45569;-70
2024/01/17 05:20:30;;;;;;;;;42.50;38.25;;;;;1.86;100.00;99092.25;5076617;27;45362;-70
2024/01/17 05:22:55;;;;;;;;;37.75;30.50;;;;;2.12;100.00;99130.34;5052974;28;45389;-70
2024/01/17 05:25:21;;;;;;;;;37.25;35.00;;;;;2.13;100.00;99121.56;5073509;28;45382;-70
2024/01/17 05:27:51;;;;;;;;;44.00;33.00;;;;;1.74;100.00;99052.78;5076949;27;45572;-70
2024/01/17 05:30:17;;;;;;;;;37.75;34.50;;;;;2.15;100.00;99111.09;5068784;27;45377;-70
2024/01/17 05:32:43;;;;;;;;;26.50;22.25;;;;;2.18;100.00;99108.38;5045621;28;45270;-70
2024/01/17 05:35:08;;;;;;;;;37.00;31.75;;;;;2.16;100.00;99097.16;5065650;27;45243;-70
2024/01/17 05:37:34;;;;;;;;;39.50;31.75;;;;;2.14;100.00;99089.38;5067831;27;45402;-70
2024/01/17 05:39:59;;;;;;;;;28.00;25.75;;;;;2.12;100.00;99082.53;5059117;28;45356;-70
2024/01/17 05:42:24;;;;;;;;;41.00;30.00;;;;;2.12;100.00;99069.50;5067794;27;45396;-70
2024/01/17 05:44:51;;;;;;;;;18.75;12.50;;;;;2.20;100.00;99075.25;5074014;27;46830;-70
2024/01/17 05:47:16;;;;;;;;;32.00;32.00;;;;;2.15;100.00;99062.41;5073883;28;45216;-70
2024/01/17 05:49:42;;;;;;;;;32.25;29.75;;;;;2.15;100.00;99048.50;5047576;28;45571;-70
2024/01/17 05:52:07;;;;;;;;;35.25;29.75;;;;;2.16;100.00;99047.63;5072718;28;45291;-71
2024/01/17 05:54:32;;;;;;;;;30.50;26.50;;;;;2.20;100.00;99033.50;5066627;27;45406;-70
2024/01/17 05:56:58;;;;;;;;;41.25;35.00;;;;;2.20;100.00;99025.69;5060839;28;45290;-71
2024/01/17 05:59:24;;;;;;;;;34.75;30.00;;;;;2.24;100.00;99024.66;5050462;28;45578;-70
2024/01/17 06:01:49;;;;;;;;;36.25;33.00;;;;;2.23;100.00;99022.94;5067175;28;45250;-70
2024/01/17 06:04:15;;;;;;;;;36.75;29.50;;;;;2.20;100.00;99008.28;5075903;27;45433;-70
2024/01/17 06:06:41;;;;;;;;;41.25;32.50;;;;;2.17;100.00;99002.34;5046038;28;46038;-70
2024/01/17 06:09:07;;;;;;;;;28.75;26.50;;;;;2.19;100.00;98993.56;5047658;28;45399;-70
2024/01/17 06:11:32;;;;;;;;;28.25;27.50;;;;;2.04;100.00;98960.31;5042933;28;45311;-70
2024/01/17 06:13:59;;;;;;;;;42.75;32.75;;;;;2.27;100.00;98988.88;5042663;28;45385;-70
2024/01/17 06:16:25;;;;;;;;;34.75;32.75;;;;;2.20;100.00;98969.19;5040484;28;45369;-71
2024/01/17 06:18:50;;;;;;;;;39.50;33.25;;;;;2.31;100.00;98980.00;5039703;28;45396;-71
2024/01/17 06:21:16;;;;;;;;;29.75;24.75;;;;;2.26;100.00;98949.84;5042933;28;45460;-71
2024/01/17 06:23:41;;;;;;;;;31.75;24.50;;;;;2.32;100.00;98960.00;5053987;28;45460;-71
2024/01/17 06:26:08;;;;;;;;;31.25;28.00;;;;;2.25;100.00;98930.72;5048983;28;45408;-71
2024/01/17 06:28:35;;;;;;;;;37.25;28.00;;;;;2.14;100.00;98913.84;5043309;28;45412;-70
2024/01/17 06:31:00;;;;;;;;;28.50;24.50;;;;;2.29;100.00;98929.66;5048049;28;45374;-71
2024/01/17 06:33:26;;;;;;;;;32.75;23.75;;;;;2.33;100.00;98927.75;5051236;28;45319;-71
2024/01/17 06:35:51;;;;;;;;;32.75;26.25;;;;;2.31;100.00;98930.44;5041690;28;47148;-71
2024/01/17 06:38:16;;;;;;;;;37.75;29.00;;;;;2.07;100.00;98871.53;5045417;28;45286;-70
2024/01/17 06:40:42;;;;;;;;;32.75;26.75;;;;;2.32;100.00;98910.44;5055409;28;45762;-70
2024/01/17 06:43:07;;;;;;;;;29.00;26.75;;;;;2.29;100.00;98894.94;5052422;28;45429;-70
2024/01/17 06:45:33;;;;;;;;;41.75;34.50;;;;;2.27;100.00;98886.31;5052299;28;45376;-70
2024/01/17 06:48:01;;;;;;;;;32.25;24.75;;;;;2.25;100.00;98881.19;5042521;28;45188;-71
2024/01/17 06:50:26;;;;;;;;;27.75;20.00;;;;;2.08;100.00;98850.63;5045492;28;45283;-71
2024/01/17 06:52:52;;;;;;;;;28.75;26.00;;;;;2.23;100.00;98875.16;5053578;28;45291;-71
2024/01/17 06:55:17;;;;;;;;;34.00;30.00;;;;;2.26;100.00;98876.81;5057786;28;46836;-70
2024/01/17 06:57:42;;;;;;;;;34.75;30.00;;;;;2.26;100.00;98871.59;5044241;28;45284;-71
2024/01/17 07:00:08;;;;;;;;;35.00;26.00;;;;;2.24;100.00;98860.38;5045447;28;45412;-71
2024/01/17 07:02:34;;;;;;;;;32.50;25.50;;;;;2.25;100.00;98857.69;5047395;28;45367;-71
2024/01/17 07:04:59;;;;;;;;;31.75;26.50;;;;;2.35;100.00;98886.81;5051355;28;45339;-71
2024/01/17 07:07:24;;;;;;;;;25.25;22.50;;;;;2.34;100.00;98866.88;5069076;27;45264;-71
2024/01/17 07:09:49;;;;;;;;;33.00;26.00;;;;;2.38;100.00;98861.47;5052787;28;45233;-71
2024/01/17 07:12:15;;;;;;;;;28.75;25.25;;;;;2.32;100.00;98861.72;5064820;28;45431;-70
2024/01/17 07:14:40;;;;;;;;;27.75;23.50;;;;;2.36;100.00;98867.63;5060098;28;46477;-71
2024/01/17 07:17:06;;;;;;;;;30.25;25.25;;;;;2.38;100.00;98869.28;5074769;28;45362;-71
2024/01/17 07:19:35;;;;;;;;;31.25;23.00;;;;;2.40;100.00;98858.75;5078751;27;45414;-70
2024/01/17 07:22:00;;;;;;;;;21.50;20.75;;;;;2.36;100.00;98838.94;5065570;27;45360;-71
2024/01/17 07:24:26;;;;;;;;;25.00;24.25;;;;;2.39;100.00;98831.81;5072952;27;45489;-70
2024/01/17 07:26:51;;;;;;;;;26.75;22.50;;;;;2.40;100.00;98836.13;5067057;27;45235;-70
2024/01/17 07:29:16;;;;;;;;;30.75;25.00;;;;;2.37;100.00;98810.19;5044607;28;45284;-70
2024/01/17 07:31:42;;;;;;;;;24.25;21.50;;;;;2.40;100.00;98806.59;5067063;28;45450;-71
2024/01/17 07:34:08;;;;;;;;;27.25;22.25;;;;;2.41;100.00;98805.69;5057331;27;47486;-70
2024/01/17 07:36:34;;;;;;;;;21.25;19.00;;;;;2.38;100.00;98798.84;5051603;28;45426;-70
2024/01/17 07:38:59;;;;;;;;;21.50;20.25;;;;;2.42;100.00;98804.78;5077653;27;45456;-71
2024/01/17 07:41:25;;;;;;;;;29.75;22.25;;;;;2.47;100.00;98805.41;5061920;28;45331;-71
2024/01/17 07:43:50;;;;;;;;;17.25;16.00;;;;;2.45;100.00;98795.06;5077526;27;46978;-70
2024/01/17 07:46:16;;;;;;;;;31.25;24.50;;;;;2.45;100.00;98789.84;5070970;28;45488;-70
2024/01/17 07:48:42;;;;;;;;;22.50;19.00;;;;;2.43;100.00;98768.16;5063201;28;45345;-70
2024/01/17 07:51:08;;;;;;;;;24.50;22.75;;;;;2.47;100.00;98766.25;5077491;27;45364;-70
2024/01/17 07:53:33;;;;;;;;;26.50;23.75;;;;;2.50;100.00;98755.69;5077072;28;45287;-60
2024/01/17 07:55:59;;;;;;;;;20.75;18.50;;;;;2.53;100.00;98756.38;5068525;28;45315;-68
2024/01/17 07:58:24;;;;;;;;;19.00;16.00;;;;;2.53;100.00;98740.72;5078644;27;45256;-68
2024/01/17 08:00:50;;;;;;;;;30.50;23.25;;;;;2.49;100.00;98748.75;5070925;27;45534;-69
2024/01/17 08:03:15;;;;;;;;;22.00;19.00;;;;;2.50;100.00;98766.13;5078734;27;45437;-68
2024/01/17 08:05:41;;;;;;;;;18.25;17.00;;;;;2.54;100.00;98783.31;5071320;27;45348;-68
2024/01/17 08:08:06;;;;;;;;;18.50;18.00;;;;;2.58;100.00;98775.28;5068650;27;45263;-68
2024/01/17 08:10:32;;;;;;;;;23.00;19.50;;;;;2.59;100.00;98750.88;5049232;28;45328;-68
2024/01/17 08:12:57;;;;;;;;;22.75;19.50;;;;;2.57;100.00;98731.00;5071042;28;46135;-68
2024/01/17 08:15:23;;;;;;;;;29.00;22.00;;;;;2.55;100.00;98718.00;5074032;28;45535;-68
2024/01/17 08:17:50;;;;;;;;;16.00;15.75;;;;;2.55;100.00;98702.34;5072105;27;45292;-68
2024/01/17 08:20:16;;;;;;;;;24.50;21.75;;;;;2.61;100.00;98717.75;5070417;28;45427;-68
2024/01/17 08:22:43;;;;;;;;;20.50;18.75;;;;;2.64;100.00;98701.09;5061850;28;47273;-68
2024/01/17 08:25:08;;;;;;;;;22.75;18.00;;;;;2.68;100.00;98701.78;5073852;27;45244;-68
2024/01/17 08:27:34;;;;;;;;;23.50;17.75;;;;;2.66;100.00;98683.56;5071475;27;45639;-68
2024/01/17 08:29:59;;;;;;;;;19.75;17.50;;;;;2.65;100.00;98688.88;5065852;27;45467;-68
2024/01/17 08:32:24;;;;;;;;;20.25;18.25;;;;;2.73;100.00;98687.59;5050602;28;46935;-68
2024/01/17 08:34:50;;;;;;;;;17.00;14.00;;;;;2.71;100.00;98691.19;5072107;27;45325;-68
2024/01/17 08:37:16;;;;;;;;;20.75;16.75;;;;;2.74;100.00;98683.22;5069463;28;45251;-68
2024/01/17 08:39:44;;;;;;;;;22.50;17.75;;;;;2.77;100.00;98676.06;5079325;28;45855;-68
2024/01/17 08:42:12;;;;;;;;;21.25;18.75;;;;;2.77;100.00;98685.66;5078404;28;45419;-68
2024/01/17 08:44:40;;;;;;;;;17.75;17.00;;;;;2.81;100.00;98668.94;5067901;28;45245;-68
2024/01/17 08:47:07;;;;;;;;;16.75;16.75;;;;;2.84;100.00;98658.34;5077843;27;45401;-68
2024/01/17 08:49:33;;;;;;;;;17.50;16.00;;;;;2.86;100.00;98653.88;5053438;27;45469;-68
2024/01/17 08:51:59;;;;;;;;;18.00;15.00;;;;;2.88;100.00;98645.03;5071278;28;46410;-68
2024/01/17 08:54:25;;;;;;;;;21.00;16.75;;;;;2.91;100.00;98633.63;5056526;27;45969;-68
2024/01/17 08:56:51;;;;;;;;;15.25;15.25;;;;;2.94;100.00;98636.06;5059418;28;45468;-68
2024/01/17 08:59:16;;;;;;;;;14.50;14.50;;;;;2.94;100.00;98623.03;5078387;28;45286;-68
2024/01/17 09:01:41;;;;;;;;;12.00;12.00;;;;;2.75;100.00;98583.94;5080165;28;45376;-68
2024/01/17 09:04:07;;;;;;;;;14.00;14.00;;;;;2.96;100.00;98611.56;5079210;27;45464;-68
2024/01/17 09:06:32;;;;;;;;;20.25;15.25;;;;;2.75;100.00;98568.28;5069527;28;45622;-69
2024/01/17 09:08:58;;;;;;;;;16.75;12.25;;;;;2.85;100.00;98574.72;5075015;27;46365;-68
2024/01/17 09:11:23;;;;;;;;;16.75;13.00;;;;;3.01;100.00;98599.09;5057173;28;48271;-68
2024/01/17 09:13:48;;;;;;;;;14.75;13.75;;;;;3.00;100.00;98583.53;5077714;27;45331;-68
2024/01/17 09:16:14;;;;;;;;;18.25;15.50;;;;;3.01;100.00;98588.66;5066340;27;46815;-68
2024/01/17 09:18:39;;;;;;;;;22.00;18.75;;;;;3.05;100.00;98586.75;5070202;27;45564;-68
2024/01/17 09:21:05;;;;;;;;;16.75;15.25;;;;;2.87;100.00;98549.41;5066926;27;45437;-68
2024/01/17 09:23:31;;;;;;;;;15.50;15.25;;;;;3.06;100.00;98570.16;5069568;27;45641;-68
2024/01/17 09:25:57;;;;;;;;;19.75;18.50;;;;;3.13;100.00;98588.06;5070226;28;45448;-68
2024/01/17 09:28:22;;;;;;;;;19.75;12.00;;;;;3.11;100.00;98571.59;5073182;28;45640;-68
2024/01/17 09:30:47;;;;;;;;;21.50;16.00;;;;;3.14;100.00;98568.00;5063677;28;46053;-68
2024/01/17 09:33:13;;;;;;;;;23.00;21.00;;;;;3.14;100.00;98558.38;5071392;27;45558;-68
2024/01/17 09:35:42;;;;;;;;;21.50;16.50;;;;;3.19;100.00;98570.34;5060253;28;45599;-68
2024/01/17 09:38:08;;;;;;;;;16.25;16.00;;;;;3.24;100.00;98570.97;5067552;27;45323;-68
2024/01/17 09:40:33;;;;;;;;;17.50;16.00;;;;;3.28;100.00;98575.94;5080189;27;45293;-68
2024/01/17 09:43:02;;;;;;;;;14.00;14.00;;;;;3.30;100.00;98574.09;5078936;27;45240;-68
2024/01/17 09:45:29;;;;;;;;;17.00;17.00;;;;;3.07;100.00;98515.25;5080564;27;45235;-68
2024/01/17 09:47:56;;;;;;;;;15.50;15.25;;;;;2.93;100.00;98485.56;5078844;28;45374;-68
2024/01/17 09:50:21;;;;;;;;;18.00;15.50;;;;;3.24;100.00;98530.00;5073055;28;46207;-68
2024/01/17 09:52:48;;;;;;;;;24.00;19.75;;;;;3.35;100.00;98553.78;5072909;28;45442;-68
2024/01/17 09:55:19;;;;;;;;;19.50;16.50;;;;;3.32;100.00;98547.88;5079972;27;45396;-68
2024/01/17 09:57:50;;;;;;;;;19.50;16.75;;;;;3.31;100.00;98544.41;5066303;27;45361;-68
2024/01/17 10:00:16;;;;;;;;;20.75;17.00;;;;;3.14;100.00;98507.94;5072206;28;46022;-68
2024/01/17 10:02:43;;;;;;;;;21.00;17.25;;;;;3.33;100.00;98542.59;5067110;28;45320;-68
2024/01/17 10:05:11;;;;;;;;;17.25;15.50;;;;;3.37;100.00;98512.72;5067843;28;45294;-69
2024/01/17 10:07:37;;;;;;;;;20.00;15.00;;;;;3.32;100.00;98512.16;5060483;28;45494;-68
2024/01/17 10:10:04;;;;;;;;;17.00;16.75;;;;;3.33;100.00;98516.47;5069004;27;45417;-68
2024/01/17 10:12:30;;;;;;;;;14.75;14.75;;;;;3.30;100.00;98513.19;5078974;28;45499;-68
2024/01/17 10:14:55;;;;;;;;;16.50;16.50;;;;;3.34;100.00;98480.75;5077984;27;45397;-68
2024/01/17 10:17:21;;;;;;;;;17.75;16.25;;;;;3.34;100.00;98497.22;5068383;28;45461;-68
2024/01/17 10:19:47;;;;;;;;;16.75;12.00;;;;;3.29;100.00;98491.44;5076787;27;45434;-68
2024/01/17 10:22:13;;;;;;;;;17.00;14.00;;;;;3.37;100.00;98485.78;5079229;27;45255;-68
2024/01/17 10:24:39;;;;;;;;;12.50;11.75;;;;;3.33;100.00;98451.16;5078801;28;45358;-68
2024/01/17 10:27:06;;;;;;;;;17.25;13.75;;;;;3.37;100.00;98441.38;5061665;28;45638;-68
2024/01/17 10:29:36;;;;;;;;;16.25;14.75;;;;;3.39;100.00;98469.09;5077413;28;45647;-68
2024/01/17 10:32:02;;;;;;;;;18.00;13.75;;;;;3.41;100.00;98469.00;5070025;28;45188;-69
2024/01/17 10:34:28;;;;;;;;;15.75;14.25;;;;;3.31;100.00;98462.59;5065682;28;45211;-68
2024/01/17 10:36:54;;;;;;;;;14.25;14.25;;;;;3.37;100.00;98465.72;5061347;28;45522;-68
2024/01/17 10:39:21;;;;;;;;;18.50;16.00;;;;;3.37;100.00;98468.31;5065585;27;45660;-68
2024/01/17 10:41:51;;;;;;;;;18.75;14.25;;;;;3.42;100.00;98466.31;5071760;28;45315;-68
2024/01/17 10:44:19;;;;;;;;;16.25;15.25;;;;;3.44;100.00;98468.81;5071774;27;45326;-68
2024/01/17 10:46:50;;;;;;;;;16.50;14.00;;;;;3.46;100.00;98473.06;5071916;28;45240;-69
2024/01/17 10:49:16;;;;;;;;;15.25;14.00;;;;;3.46;100.00;98467.00;5073796;27;45882;-68
2024/01/17 10:52:01;;;;;;;;;15.00;14.00;;;;;3.48;100.00;98457.28;5078374;27;45260;-69
2024/01/17 10:54:33;;;;;;;;;17.75;17.75;;;;;3.35;100.00;98430.16;5079340;28;45239;-68
2024/01/17 10:57:05;;;;;;;;;18.75;16.00;;;;;3.39;100.00;98423.84;5078748;28;45192;-68
2024/01/17 10:59:32;;;;;;;;;11.50;11.50;;;;;3.52;100.00;98428.28;5068394;27;45265;-68
2024/01/17 11:01:58;;;;;;;;;21.00;15.00;;;;;3.58;100.00;98433.16;5078013;28;45326;-68
2024/01/17 11:04:29;;;;;;;;;17.00;15.75;;;;;3.36;100.00;98390.91;5065585;28;45324;-68
2024/01/17 11:06:57;;;;;;;;;19.00;17.50;;;;;3.52;100.00;98420.47;5079718;28;45302;-68
2024/01/17 11:09:26;;;;;;;;;16.00;15.00;;;;;3.57;100.00;98428.00;5081493;28;46235;-69
2024/01/17 11:11:52;;;;;;;;;11.00;11.00;;;;;3.41;100.00;98385.41;5058218;27;45265;-69
2024/01/17 11:14:20;;;;;;;;;16.75;15.00;;;;;3.60;100.00;98426.06;5060024;28;45596;-68